Time;durP1;ratioP1;P1;durP2;ratioP2;P2;SDS_P1;SDS_P2;PMS_P1;PMS_P2;Temp;Humidity;BMP_temperature;BMP_pressure;BME280_temperature;BME280_humidity;BME280_pressure;Samples;Min_cycle;Max_cycle;Signal;HPM_P1;HPM_P2
2023/10/04 07:00:46;;;;;;;3.20;1.60;;;18.80;73.30;;;;;;6146327;23;20279;-84
2023/10/04 07:03:12;;;;;;;3.63;1.90;;;18.80;73.20;;;;;;6183015;23;20150;-83
2023/10/04 07:05:42;;;;;;;3.53;1.90;;;18.80;73.10;;;;;;6157104;23;20809;-82
2023/10/04 07:08:12;;;;;;;2.10;1.60;;;18.70;73.30;;;;;;6160452;23;20551;-83
2023/10/04 07:10:47;;;;;;;2.75;1.45;;;18.80;73.40;;;;;;6161996;23;20222;-84
2023/10/04 07:13:14;;;;;;;3.10;1.98;;;18.90;73.20;;;;;;6105217;23;20187;-85
2023/10/04 07:15:41;;;;;;;3.05;2.03;;;18.80;73.20;;;;;;6105063;23;20582;-83
2023/10/04 07:18:09;;;;;;;2.88;2.10;;;18.90;73.30;;;;;;6105250;23;20151;-83
2023/10/04 07:20:35;;;;;;;2.63;1.98;;;18.90;73.40;;;;;;6129493;23;20176;-83
2023/10/04 07:23:07;;;;;;;2.83;1.80;;;18.80;73.40;;;;;;6153890;23;20198;-83
2023/10/04 07:25:34;;;;;;;2.80;1.80;;;18.80;73.30;;;;;;6131449;23;20579;-84
2023/10/04 07:28:02;;;;;;;2.83;1.65;;;18.80;73.70;;;;;;6130130;23;20151;-83
2023/10/04 07:30:28;;;;;;;3.00;1.60;;;18.80;73.40;;;;;;6130164;23;20135;-82
2023/10/04 07:32:55;;;;;;;2.05;1.70;;;18.80;73.40;;;;;;6106110;23;20155;-84
2023/10/04 07:35:25;;;;;;;3.85;2.00;;;18.80;73.40;;;;;;6131756;23;20132;-84
2023/10/04 07:37:52;;;;;;;2.65;1.90;;;18.80;73.60;;;;;;6106471;23;20238;-83
2023/10/04 07:40:17;;;;;;;3.05;2.00;;;18.80;73.50;;;;;;6128782;23;20162;-82
2023/10/04 07:42:45;;;;;;;2.53;1.63;;;18.80;73.30;;;;;;6128468;23;20610;-84
2023/10/04 07:45:12;;;;;;;2.22;1.60;;;18.90;73.50;;;;;;6159516;23;20147;-83
2023/10/04 07:47:43;;;;;;;2.10;1.52;;;18.90;73.40;;;;;;6160043;23;20157;-83
2023/10/04 07:50:11;;;;;;;2.25;1.60;;;18.90;73.40;;;;;;6237137;23;20606;-83
2023/10/04 07:52:37;;;;;;;2.92;1.50;;;19.00;73.40;;;;;;6134257;23;20514;-83
2023/10/04 07:55:05;;;;;;;2.22;1.50;;;18.90;73.20;;;;;;6134350;23;20154;-82
2023/10/04 07:57:41;;;;;;;2.33;1.58;;;19.00;73.30;;;;;;6183515;23;20212;-83
2023/10/04 08:00:14;;;;;;;2.45;1.70;;;19.00;73.40;;;;;;6137624;23;20151;-84
2023/10/04 08:02:46;;;;;;;2.90;1.50;;;18.90;73.40;;;;;;6134896;23;20526;-83
2023/10/04 08:05:18;;;;;;;2.50;1.50;;;19.00;73.50;;;;;;6162975;23;20143;-84
2023/10/04 08:07:50;;;;;;;2.78;1.75;;;18.90;73.60;;;;;;6138436;23;20142;-84
2023/10/04 08:10:23;;;;;;;2.33;1.77;;;18.90;73.60;;;;;;6238430;23;20173;-83
2023/10/04 08:12:51;;;;;;;2.42;1.70;;;18.90;73.50;;;;;;6138078;23;20157;-83
2023/10/04 08:15:21;;;;;;;2.30;1.52;;;18.90;73.40;;;;;;6161109;23;20146;-84
2023/10/04 08:17:48;;;;;;;3.10;1.67;;;18.90;73.50;;;;;;6235598;23;20150;-85
2023/10/04 08:20:14;;;;;;;1.80;1.42;;;18.90;73.40;;;;;;6158241;23;20280;-83
2023/10/04 08:22:46;;;;;;;2.92;1.50;;;19.00;73.40;;;;;;6158679;23;20197;-84
2023/10/04 08:25:13;;;;;;;3.20;1.60;;;18.90;73.20;;;;;;6209124;23;20151;-83
2023/10/04 08:27:40;;;;;;;2.03;1.50;;;18.90;73.30;;;;;;6133524;23;20149;-84
2023/10/04 08:30:07;;;;;;;2.22;1.50;;;19.00;73.30;;;;;;6158354;23;20511;-84
2023/10/04 08:32:36;;;;;;;2.88;1.88;;;19.00;73.20;;;;;;6157385;23;20558;-84
2023/10/04 08:35:03;;;;;;;2.15;1.50;;;19.00;73.20;;;;;;6236192;23;20991;-83
2023/10/04 08:37:30;;;;;;;3.10;1.50;;;19.00;73.10;;;;;;6184390;23;20131;-83
2023/10/04 08:39:55;;;;;;;2.20;1.30;;;19.00;73.00;;;;;;6158641;23;20150;-82
2023/10/04 08:42:29;;;;;;;1.85;1.40;;;19.00;73.10;;;;;;6131827;23;20194;-84
2023/10/04 08:44:56;;;;;;;3.55;1.60;;;19.00;73.20;;;;;;6131776;23;20169;-84
2023/10/04 08:47:24;;;;;;;2.53;1.73;;;19.00;72.90;;;;;;6158748;23;20135;-85
2023/10/04 08:49:53;;;;;;;2.17;1.40;;;19.00;73.10;;;;;;6157041;23;20530;-84
2023/10/04 08:52:27;;;;;;;4.10;1.73;;;19.00;73.00;;;;;;6156615;22;20538;-84
2023/10/04 08:54:58;;;;;;;1.92;1.50;;;18.90;73.10;;;;;;6232518;23;20661;-84
2023/10/04 08:57:24;;;;;;;4.22;1.70;;;19.00;73.00;;;;;;6156498;23;20146;-84
2023/10/04 08:59:51;;;;;;;2.75;1.33;;;19.00;73.10;;;;;;6156888;22;20147;-82
2023/10/04 09:02:32;;;;;;;2.83;1.60;;;19.10;72.80;;;;;;6180344;23;20190;-83
2023/10/04 09:04:58;;;;;;;2.60;1.48;;;19.00;73.10;;;;;;6181238;23;20241;-84
2023/10/04 09:07:29;;;;;;;1.90;1.38;;;19.00;73.10;;;;;;6158564;23;20154;-84
2023/10/04 09:09:56;;;;;;;2.92;1.60;;;19.10;73.10;;;;;;6258498;22;20174;-83
2023/10/04 09:12:30;;;;;;;3.35;1.70;;;19.00;73.10;;;;;;6180312;23;20158;-84
2023/10/04 09:14:59;;;;;;;4.40;1.67;;;19.00;73.40;;;;;;6179331;23;20189;-84
2023/10/04 09:17:29;;;;;;;1.90;1.30;;;19.00;73.20;;;;;;6128956;23;20143;-84
2023/10/04 09:20:00;;;;;;;1.92;1.38;;;19.00;72.90;;;;;;6130589;23;20958;-84
2023/10/04 09:22:29;;;;;;;3.13;1.42;;;19.00;73.10;;;;;;6230990;23;20233;-85
2023/10/04 09:24:55;;;;;;;4.97;1.63;;;19.00;73.00;;;;;;6180037;23;20455;-84
2023/10/04 09:27:25;;;;;;;2.30;1.60;;;19.10;73.00;;;;;;6178537;23;20154;-84
2023/10/04 09:29:53;;;;;;;5.60;1.77;;;19.10;72.90;;;;;;6153895;23;20590;-83
2023/10/04 09:32:34;;;;;;;2.58;1.50;;;19.10;72.90;;;;;;6178655;23;20131;-84
2023/10/04 09:35:05;;;;;;;2.50;1.25;;;19.00;72.80;;;;;;6130232;23;20138;-84
2023/10/04 09:37:31;;;;;;;2.22;1.42;;;19.10;72.80;;;;;;6128994;23;20208;-84
2023/10/04 09:40:17;;;;;;;4.72;1.30;;;19.10;72.80;;;;;;6180272;23;20155;-84
2023/10/04 09:42:49;;;;;;;4.68;1.27;;;19.10;72.70;;;;;;6096120;23;20188;-83
2023/10/04 09:45:31;;;;;;;2.15;1.40;;;19.10;72.60;;;;;;6165365;23;20167;-84
2023/10/04 09:48:03;;;;;;;2.13;1.20;;;19.10;72.70;;;;;;6048705;23;20574;-84
2023/10/04 09:50:29;;;;;;;2.20;1.30;;;19.10;72.70;;;;;;6048464;23;20175;-85
2023/10/04 09:52:54;;;;;;;3.67;1.50;;;19.10;72.70;;;;;;6093168;23;20476;-84
2023/10/04 09:55:22;;;;;;;3.65;1.30;;;19.10;72.70;;;;;;6045836;23;20171;-85
2023/10/04 09:57:48;;;;;;;2.95;1.38;;;19.10;72.60;;;;;;6069824;23;20218;-85
2023/10/04 10:00:17;;;;;;;3.90;1.60;;;19.10;72.60;;;;;;6069602;23;20148;-83
2023/10/04 10:02:52;;;;;;;4.30;1.50;;;19.10;72.60;;;;;;6069907;23;20211;-85
2023/10/04 10:05:26;;;;;;;2.08;1.30;;;19.00;72.50;;;;;;6170669;23;20159;-86
2023/10/04 10:07:53;;;;;;;2.40;1.38;;;19.00;72.30;;;;;;6071373;23;20149;-84
2023/10/04 10:10:20;;;;;;;1.90;1.48;;;19.00;72.50;;;;;;6069834;23;20213;-83
2023/10/04 10:12:48;;;;;;;1.65;1.10;;;18.90;72.60;;;;;;6128390;23;20162;-84
2023/10/04 10:15:14;;;;;;;1.60;1.20;;;18.90;72.60;;;;;;6153625;23;20196;-85
2023/10/04 10:17:48;;;;;;;3.28;1.20;;;18.90;72.80;;;;;;6178743;23;20566;-84
2023/10/04 10:20:19;;;;;;;5.95;1.40;;;18.90;72.90;;;;;;6206088;23;20520;-84
2023/10/04 10:23:16;;;;;;;4.15;1.63;;;18.90;73.00;;;;;;6256505;22;20705;-84
2023/10/04 10:26:16;;;;;;;3.05;1.45;;;18.90;73.10;;;;;;6158487;23;20143;-85
2023/10/04 10:28:42;;;;;;;2.33;1.30;;;18.80;72.90;;;;;;6178786;22;20179;-84
2023/10/04 10:31:25;;;;;;;2.30;1.17;;;18.80;72.90;;;;;;6178617;23;20158;-85
2023/10/04 10:33:52;;;;;;;1.10;1.00;;;18.80;72.60;;;;;;6139845;23;20696;-86
2023/10/04 10:36:24;;;;;;;1.95;1.20;;;18.80;72.70;;;;;;6223269;23;20149;-85
2023/10/04 10:38:54;;;;;;;2.67;1.20;;;18.80;72.80;;;;;;6175851;23;20245;-85
2023/10/04 10:41:55;;;;;;;2.95;1.50;;;18.80;72.70;;;;;;6223000;23;20239;-84
2023/10/04 10:44:24;;;;;;;2.53;1.08;;;18.80;72.50;;;;;;6223290;23;20156;-87
2023/10/04 10:46:58;;;;;;;1.33;0.98;;;18.90;73.70;;;;;;6222391;23;20152;-85
2023/10/04 10:49:41;;;;;;;1.95;1.40;;;18.80;72.40;;;;;;6220400;23;20141;-86
2023/10/04 10:52:09;;;;;;;1.73;1.17;;;18.80;72.40;;;;;;6219776;23;20153;-85
2023/10/04 10:54:36;;;;;;;3.33;1.10;;;18.80;72.70;;;;;;6193599;23;20331;-87
2023/10/04 10:57:07;;;;;;;2.75;1.10;;;18.80;72.30;;;;;;6218917;23;20145;-85
2023/10/04 10:59:34;;;;;;;2.33;1.15;;;18.80;72.10;;;;;;6168210;23;20153;-86
2023/10/04 11:01:59;;;;;;;2.20;1.10;;;18.90;72.30;;;;;;6193961;23;20665;-84
2023/10/04 11:04:25;;;;;;;2.67;1.30;;;18.80;72.20;;;;;;6193876;23;20149;-87
2023/10/04 11:06:55;;;;;;;4.30;1.17;;;18.80;72.50;;;;;;6201032;23;20234;-84
2023/10/04 11:09:24;;;;;;;2.70;1.23;;;18.80;72.30;;;;;;6181485;23;20176;-87
2023/10/04 11:11:52;;;;;;;2.60;1.05;;;18.70;72.30;;;;;;6132592;23;20151;-84
2023/10/04 11:14:19;;;;;;;3.33;1.42;;;18.80;71.70;;;;;;6207859;23;20147;-84
2023/10/04 11:16:47;;;;;;;1.52;1.10;;;18.80;72.10;;;;;;6158218;22;20222;-84
2023/10/04 11:19:13;;;;;;;2.70;1.17;;;18.70;72.00;;;;;;6238152;23;20151;-86
2023/10/04 11:21:39;;;;;;;1.50;1.10;;;18.80;71.60;;;;;;6135920;23;20170;-85
2023/10/04 11:24:05;;;;;;;2.28;1.10;;;18.80;71.60;;;;;;6138024;23;20154;-84
2023/10/04 11:26:31;;;;;;;2.15;0.82;;;18.70;71.50;;;;;;6184214;23;20466;-84
2023/10/04 11:28:58;;;;;;;2.00;1.13;;;18.70;72.40;;;;;;6184814;23;20140;-84
2023/10/04 11:31:23;;;;;;;2.03;1.15;;;18.70;71.50;;;;;;6184434;23;20135;-84
2023/10/04 11:33:59;;;;;;;3.15;0.80;;;18.80;71.50;;;;;;6185005;23;20474;-85
2023/10/04 11:36:27;;;;;;;1.60;1.00;;;18.80;71.40;;;;;;6137436;23;20243;-84
2023/10/04 11:38:53;;;;;;;1.40;1.00;;;18.80;71.40;;;;;;6236137;23;20243;-84
2023/10/04 11:41:19;;;;;;;5.60;0.90;;;18.80;71.20;;;;;;6160363;23;20175;-85
2023/10/04 11:43:47;;;;;;;1.02;0.88;;;18.70;71.00;;;;;;6135674;23;20150;-85
2023/10/04 11:46:17;;;;;;;1.95;1.02;;;18.80;71.00;;;;;;6160846;23;20143;-85
2023/10/04 11:48:47;;;;;;;4.80;1.00;;;18.80;71.00;;;;;;6263887;22;20150;-84
2023/10/04 11:51:28;;;;;;;1.85;1.00;;;18.80;70.60;;;;;;6158105;23;20155;-84
2023/10/04 11:53:54;;;;;;;2.65;1.02;;;18.80;70.70;;;;;;6184008;23;20139;-85
2023/10/04 11:56:19;;;;;;;1.15;0.95;;;18.80;70.70;;;;;;6158779;23;20147;-85
2023/10/04 11:58:47;;;;;;;2.58;1.02;;;18.80;70.90;;;;;;6185210;23;20135;-85
2023/10/04 12:01:16;;;;;;;1.63;0.93;;;18.80;70.70;;;;;;6158297;23;20228;-86
2023/10/04 12:03:43;;;;;;;1.73;1.10;;;18.80;70.80;;;;;;6161632;23;20155;-86
2023/10/04 12:06:14;;;;;;;2.17;0.90;;;18.80;71.00;;;;;;6136799;23;20597;-87
2023/10/04 12:08:43;;;;;;;2.33;0.85;;;18.80;70.50;;;;;;6114865;23;20165;-85
2023/10/04 12:14:01;;;;;;;1.95;0.90;;;18.80;70.20;;;;;;6166730;23;20131;-83
2023/10/04 12:16:37;;;;;;;1.83;0.90;;;18.80;70.30;;;;;;6141552;23;20157;-85
2023/10/04 12:19:04;;;;;;;2.30;0.80;;;18.80;70.30;;;;;;6105365;23;20631;-85
2023/10/04 12:21:37;;;;;;;1.05;0.88;;;18.80;70.00;;;;;;6204767;23;20185;-85
2023/10/04 12:24:19;;;;;;;1.42;0.80;;;18.80;70.20;;;;;;6229627;23;20526;-85
2023/10/04 12:26:47;;;;;;;0.98;0.85;;;18.80;69.90;;;;;;6152678;23;20175;-87
2023/10/04 12:29:39;;;;;;;2.00;0.82;;;18.90;69.90;;;;;;6181534;23;20153;-85
2023/10/04 12:32:07;;;;;;;2.78;1.02;;;18.80;69.70;;;;;;6189782;23;20193;-85
2023/10/04 12:34:34;;;;;;;1.77;0.90;;;18.80;69.60;;;;;;6178530;23;20218;-85
2023/10/04 12:37:09;;;;;;;1.00;0.85;;;18.80;69.60;;;;;;6208828;23;20183;-85
2023/10/04 12:39:43;;;;;;;2.22;0.70;;;18.80;69.60;;;;;;6230965;23;20154;-85
2023/10/04 12:42:09;;;;;;;2.38;0.80;;;18.80;69.50;;;;;;6229254;23;20720;-84
2023/10/04 12:44:37;;;;;;;1.15;0.90;;;18.80;69.40;;;;;;6205138;23;20468;-86
2023/10/04 12:47:04;;;;;;;1.85;0.80;;;18.80;69.60;;;;;;6204178;23;20140;-83
2023/10/04 12:49:31;;;;;;;1.30;0.90;;;18.90;69.50;;;;;;6203165;23;20156;-85
2023/10/04 12:52:00;;;;;;;1.20;0.85;;;18.80;69.10;;;;;;6184760;23;20154;-83
2023/10/04 12:54:28;;;;;;;2.25;1.00;;;18.80;69.20;;;;;;6234699;23;20136;-87
2023/10/04 12:57:11;;;;;;;0.77;0.77;;;18.90;69.20;;;;;;6182961;23;20146;-84
2023/10/04 12:59:38;;;;;;;1.08;0.90;;;18.90;69.30;;;;;;6141707;23;20146;-84
2023/10/04 13:02:06;;;;;;;1.45;0.85;;;18.90;68.90;;;;;;6156661;22;20641;-85
2023/10/04 13:04:34;;;;;;;1.15;0.90;;;18.90;69.00;;;;;;6187011;23;20578;-86
2023/10/04 13:07:07;;;;;;;0.85;0.65;;;18.90;68.80;;;;;;6159161;23;20170;-86
2023/10/04 13:09:32;;;;;;;1.00;0.70;;;18.80;68.70;;;;;;6183159;23;20458;-87
2023/10/04 13:11:58;;;;;;;2.28;0.82;;;19.00;68.50;;;;;;6159298;23;20146;-84
2023/10/04 13:14:24;;;;;;;1.63;0.70;;;18.90;69.50;;;;;;6160411;22;20131;-84
2023/10/04 13:16:50;;;;;;;1.02;0.68;;;18.90;68.70;;;;;;6159189;22;20165;-87
2023/10/04 13:19:16;;;;;;;4.10;0.80;;;18.90;68.50;;;;;;6185316;23;20139;-86
2023/10/04 13:21:45;;;;;;;2.13;0.88;;;18.90;68.50;;;;;;6139497;23;20694;-83
2023/10/04 13:24:11;;;;;;;0.70;0.70;;;18.90;68.30;;;;;;6164975;23;20156;-88
2023/10/04 13:26:39;;;;;;;1.35;0.80;;;18.90;68.20;;;;;;6136159;23;20135;-87
2023/10/04 13:29:14;;;;;;;0.90;0.70;;;18.90;68.10;;;;;;6139627;23;20150;-87
2023/10/04 13:31:42;;;;;;;0.80;0.60;;;18.90;68.30;;;;;;6170730;23;20142;-86
2023/10/04 13:34:45;;;;;;;0.70;0.60;;;18.90;68.40;;;;;;6159754;23;20147;-85
2023/10/04 13:37:16;;;;;;;1.42;0.80;;;18.90;68.20;;;;;;6184754;23;20146;-86
2023/10/04 13:39:43;;;;;;;2.05;0.82;;;18.90;68.20;;;;;;6239429;23;20151;-87
2023/10/04 13:42:13;;;;;;;0.47;0.47;;;18.90;68.00;;;;;;6138186;23;20190;-87
2023/10/04 13:44:39;;;;;;;0.70;0.57;;;18.90;68.00;;;;;;6164696;23;20154;-85
2023/10/04 13:47:08;;;;;;;0.70;0.70;;;18.90;67.90;;;;;;6165597;23;20150;-85
2023/10/04 13:49:35;;;;;;;1.42;0.80;;;18.90;67.60;;;;;;6110032;23;20150;-85
2023/10/04 13:52:10;;;;;;;1.08;0.70;;;18.90;67.80;;;;;;6088773;23;20155;-87
2023/10/04 13:54:41;;;;;;;0.50;0.50;;;18.90;67.70;;;;;;6111806;23;20155;-89
2023/10/04 13:57:09;;;;;;;1.65;0.70;;;18.90;67.80;;;;;;6110155;23;20143;-85
2023/10/04 13:59:38;;;;;;;0.70;0.60;;;18.90;68.00;;;;;;6083520;23;20189;-87
2023/10/04 14:02:08;;;;;;;1.00;0.60;;;18.90;67.90;;;;;;6081966;23;20553;-85
2023/10/04 14:04:42;;;;;;;1.75;0.80;;;18.90;67.70;;;;;;6085518;23;20158;-86
2023/10/04 14:07:09;;;;;;;1.00;0.50;;;18.90;67.80;;;;;;6108341;23;20155;-84
2023/10/04 14:09:37;;;;;;;1.60;0.50;;;19.00;67.60;;;;;;6081988;23;20155;-85
2023/10/04 14:12:03;;;;;;;0.57;0.57;;;18.90;67.60;;;;;;6128274;23;20144;-88
2023/10/04 14:14:42;;;;;;;0.55;0.52;;;18.90;67.60;;;;;;6103229;23;20151;-84
2023/10/04 14:17:16;;;;;;;1.50;0.57;;;18.90;67.30;;;;;;6082657;23;20190;-88
2023/10/04 15:04:20;;;;;;;1.75;0.60;;;19.10;65.00;;;;;;6200921;22;20204;-86
2023/10/04 15:06:46;;;;;;;0.52;0.50;;;19.10;65.10;;;;;;6184718;23;20186;-86
2023/10/04 15:09:12;;;;;;;1.70;0.50;;;19.10;65.00;;;;;;6183471;23;20230;-86
2023/10/04 15:11:44;;;;;;;1.13;0.60;;;19.10;65.00;;;;;;6156327;23;20254;-88
2023/10/04 15:14:11;;;;;;;0.98;0.47;;;19.10;64.90;;;;;;6209005;23;20545;-88
2023/10/04 15:16:38;;;;;;;1.25;0.60;;;19.10;64.90;;;;;;6156465;23;20127;-87
2023/10/04 15:19:09;;;;;;;0.77;0.60;;;19.10;64.90;;;;;;6132094;23;20150;-88
2023/10/04 15:21:40;;;;;;;0.50;0.40;;;19.10;64.80;;;;;;6131814;23;20191;-86
2023/10/04 15:24:14;;;;;;;0.47;0.47;;;19.20;64.70;;;;;;6209926;23;20587;-86
2023/10/04 15:26:41;;;;;;;0.38;0.38;;;19.10;64.50;;;;;;6160765;23;20174;-86
2023/10/04 15:29:08;;;;;;;2.45;0.60;;;19.20;64.60;;;;;;6133347;23;20162;-88
2023/10/04 15:31:34;;;;;;;0.80;0.50;;;19.20;64.50;;;;;;6181073;23;20550;-87
2023/10/04 15:34:01;;;;;;;0.40;0.40;;;19.20;64.50;;;;;;6155962;23;20146;-88
2023/10/04 15:36:27;;;;;;;0.75;0.45;;;19.20;64.40;;;;;;6181117;23;20135;-88
2023/10/04 15:38:53;;;;;;;0.85;0.43;;;19.20;64.30;;;;;;6182882;23;20459;-87
2023/10/04 15:41:19;;;;;;;0.60;0.52;;;19.20;64.30;;;;;;6182902;23;20261;-86
2023/10/04 15:43:44;;;;;;;0.77;0.60;;;19.20;64.30;;;;;;6133549;23;20166;-87
2023/10/04 15:46:10;;;;;;;0.90;0.60;;;19.10;64.30;;;;;;6183704;23;20135;-88
2023/10/04 15:48:38;;;;;;;0.85;0.40;;;19.20;64.00;;;;;;6184105;23;20170;-87
2023/10/04 15:51:04;;;;;;;1.00;0.80;;;19.20;63.70;;;;;;6161510;22;20216;-87
2023/10/04 15:53:30;;;;;;;1.02;0.60;;;19.20;64.10;;;;;;6132190;23;20157;-88
2023/10/04 15:55:56;;;;;;;1.02;0.55;;;19.20;64.10;;;;;;6156719;22;20218;-87
2023/10/04 15:58:25;;;;;;;0.75;0.60;;;19.20;64.00;;;;;;6181579;23;20202;-89
2023/10/04 16:00:51;;;;;;;0.70;0.50;;;19.20;64.00;;;;;;6186746;23;20134;-88
2023/10/04 16:03:19;;;;;;;0.63;0.50;;;19.20;63.90;;;;;;6158588;23;20251;-87
2023/10/04 16:05:49;;;;;;;0.60;0.40;;;19.20;64.10;;;;;;6137575;23;20142;-87
2023/10/04 16:08:15;;;;;;;0.75;0.50;;;19.20;63.90;;;;;;6160584;22;20466;-87
2023/10/04 16:10:40;;;;;;;0.75;0.40;;;19.20;64.10;;;;;;6185784;23;20164;-86
2023/10/04 16:13:08;;;;;;;1.23;0.60;;;19.30;64.00;;;;;;6186296;23;20139;-86
2023/10/04 16:15:35;;;;;;;0.73;0.40;;;19.30;64.10;;;;;;6162677;23;20150;-88
2023/10/04 16:18:02;;;;;;;1.13;0.60;;;19.30;64.20;;;;;;6138854;23;20139;-88
2023/10/04 16:20:29;;;;;;;2.13;0.60;;;19.30;64.20;;;;;;6186395;23;20127;-88
2023/10/04 16:22:57;;;;;;;1.02;0.75;;;19.30;64.20;;;;;;6187065;23;20167;-88
2023/10/04 16:25:24;;;;;;;1.15;0.63;;;19.30;64.20;;;;;;6187026;23;20138;-87
2023/10/04 16:27:50;;;;;;;0.95;0.50;;;19.20;64.00;;;;;;6162622;23;20538;-87
2023/10/04 16:30:16;;;;;;;1.10;0.50;;;19.20;64.00;;;;;;6162876;23;20143;-87
2023/10/04 16:32:46;;;;;;;1.70;0.50;;;19.30;64.00;;;;;;6138496;23;20154;-88
2023/10/04 16:35:13;;;;;;;0.93;0.40;;;19.20;63.90;;;;;;6142688;23;20146;-86
2023/10/04 16:37:43;;;;;;;2.45;0.57;;;19.20;63.90;;;;;;6143488;23;20202;-87
2023/10/04 16:40:12;;;;;;;1.17;0.40;;;19.30;63.90;;;;;;6142065;23;20169;-87
2023/10/04 16:42:41;;;;;;;0.95;0.40;;;19.30;63.80;;;;;;6163489;23;20602;-87
2023/10/04 16:45:08;;;;;;;0.40;0.35;;;19.20;63.70;;;;;;6163057;23;20477;-88
2023/10/04 16:47:44;;;;;;;0.70;0.50;;;19.30;63.60;;;;;;6188086;23;20134;-87
2023/10/04 16:50:10;;;;;;;0.73;0.50;;;19.30;63.60;;;;;;6187056;23;20557;-87
2023/10/04 16:52:46;;;;;;;0.70;0.40;;;19.30;63.50;;;;;;6185815;23;20150;-89
2023/10/04 16:55:13;;;;;;;0.73;0.40;;;19.30;63.40;;;;;;6105549;23;20151;-87
2023/10/04 16:57:41;;;;;;;0.93;0.50;;;19.20;63.30;;;;;;6106604;23;20702;-88
2023/10/04 17:00:10;;;;;;;3.00;0.43;;;19.30;63.40;;;;;;6107453;23;20168;-88
2023/10/04 17:02:37;;;;;;;0.60;0.45;;;19.30;63.30;;;;;;6131731;23;20167;-87
2023/10/04 17:05:04;;;;;;;0.43;0.40;;;19.30;63.30;;;;;;6107137;23;20162;-88
2023/10/04 17:07:30;;;;;;;1.40;0.50;;;19.30;63.30;;;;;;6106926;23;20158;-88
2023/10/04 17:09:59;;;;;;;0.35;0.35;;;19.30;63.30;;;;;;6108529;23;20162;-87
2023/10/04 17:12:27;;;;;;;2.33;0.47;;;19.30;63.20;;;;;;6134464;23;20588;-88
2023/10/04 17:14:54;;;;;;;0.50;0.50;;;19.40;63.40;;;;;;6131938;23;20152;-88
2023/10/04 17:17:21;;;;;;;3.95;0.88;;;19.30;62.80;;;;;;6131496;22;20176;-88
2023/10/04 17:19:50;;;;;;;0.45;0.40;;;19.30;63.00;;;;;;6107833;23;20274;-89
2023/10/04 17:22:17;;;;;;;1.00;0.50;;;19.30;62.90;;;;;;6071982;23;20679;-87
2023/10/04 17:24:44;;;;;;;1.00;0.50;;;19.30;62.80;;;;;;6073965;23;20152;-89
2023/10/04 17:27:13;;;;;;;0.77;0.55;;;19.30;62.80;;;;;;6104437;23;20178;-87
2023/10/04 17:29:43;;;;;;;0.82;0.50;;;19.30;62.80;;;;;;6107355;23;20234;-86
2023/10/04 17:32:11;;;;;;;0.80;0.50;;;19.30;62.70;;;;;;6107796;23;20161;-89
2023/10/04 17:34:37;;;;;;;1.58;0.55;;;19.30;62.50;;;;;;6131464;23;20148;-88
2023/10/04 17:37:02;;;;;;;0.40;0.40;;;19.30;62.60;;;;;;6106698;23;20152;-86
2023/10/04 17:39:30;;;;;;;1.95;0.50;;;19.30;62.70;;;;;;6107076;22;20155;-88
2023/10/04 17:42:16;;;;;;;1.00;0.40;;;19.30;62.60;;;;;;6108321;23;20189;-87
2023/10/04 17:44:42;;;;;;;0.65;0.50;;;19.30;62.50;;;;;;6109989;23;20168;-89
2023/10/04 17:47:09;;;;;;;1.30;0.50;;;19.30;62.50;;;;;;6107115;23;20151;-87
2023/10/04 17:49:35;;;;;;;0.85;0.47;;;19.30;62.70;;;;;;6104806;23;20234;-87
2023/10/04 17:52:05;;;;;;;2.17;0.50;;;19.30;62.70;;;;;;6105196;23;20598;-88
2023/10/04 17:54:32;;;;;;;1.23;0.60;;;19.30;62.50;;;;;;6135357;23;20203;-89
2023/10/04 17:57:01;;;;;;;0.98;0.40;;;19.20;62.40;;;;;;6159748;23;20462;-89
2023/10/04 17:59:27;;;;;;;0.75;0.40;;;19.30;62.50;;;;;;6136408;23;20153;-87
2023/10/04 18:01:55;;;;;;;0.55;0.50;;;19.30;63.30;;;;;;6160504;23;20186;-87
2023/10/04 18:04:22;;;;;;;0.50;0.45;;;19.30;62.40;;;;;;6135309;23;20286;-86
2023/10/04 18:06:49;;;;;;;1.95;0.45;;;19.30;62.40;;;;;;6136267;23;20148;-88
2023/10/04 18:09:18;;;;;;;0.60;0.40;;;19.30;62.30;;;;;;6163721;23;20193;-88
2023/10/04 18:11:44;;;;;;;2.80;0.60;;;19.40;62.40;;;;;;6162879;23;20177;-86
2023/10/04 18:14:12;;;;;;;0.55;0.52;;;19.20;62.20;;;;;;6161629;22;20139;-88
2023/10/04 18:16:41;;;;;;;2.45;0.30;;;19.20;62.10;;;;;;6137988;23;20601;-89
2023/10/04 18:19:07;;;;;;;0.70;0.40;;;19.30;62.10;;;;;;6160798;23;20431;-88
2023/10/04 18:21:33;;;;;;;0.35;0.35;;;19.30;62.10;;;;;;6133776;23;20183;-88
2023/10/04 18:23:58;;;;;;;2.60;0.55;;;19.30;62.10;;;;;;6181850;23;20226;-88
2023/10/04 18:26:24;;;;;;;0.82;0.20;;;19.30;62.10;;;;;;6156526;23;20135;-85
2023/10/04 18:28:54;;;;;;;0.73;0.43;;;19.30;62.00;;;;;;6180950;23;20138;-86
2023/10/04 18:31:20;;;;;;;1.10;0.30;;;19.30;62.00;;;;;;6156676;23;20154;-87
2023/10/04 18:33:46;;;;;;;0.60;0.50;;;19.30;61.90;;;;;;6182295;23;20159;-89
2023/10/04 18:36:16;;;;;;;0.90;0.40;;;19.30;61.90;;;;;;6184993;23;20132;-86
2023/10/04 18:38:43;;;;;;;1.08;0.43;;;19.30;61.80;;;;;;6156120;22;20150;-86
2023/10/04 18:41:10;;;;;;;0.60;0.50;;;19.30;61.80;;;;;;6131659;23;20202;-88
2023/10/04 18:43:36;;;;;;;0.60;0.30;;;19.30;61.80;;;;;;6156323;22;20268;-87
2023/10/04 18:46:01;;;;;;;0.57;0.40;;;19.30;61.60;;;;;;6134277;23;20135;-88
2023/10/04 18:48:29;;;;;;;0.73;0.30;;;19.30;61.60;;;;;;6134986;23;20143;-88
2023/10/04 18:50:55;;;;;;;1.77;0.40;;;19.40;61.70;;;;;;6133146;23;20139;-87
2023/10/04 18:53:22;;;;;;;2.40;0.40;;;19.30;61.50;;;;;;6133111;23;20200;-87
2023/10/04 18:55:51;;;;;;;0.95;0.40;;;19.30;61.50;;;;;;6182278;23;20180;-89
2023/10/04 18:58:19;;;;;;;2.78;0.40;;;19.30;61.50;;;;;;6182488;23;20225;-87
2023/10/04 19:00:45;;;;;;;0.80;0.30;;;19.30;61.50;;;;;;6182078;23;20147;-85
2023/10/04 19:03:11;;;;;;;1.77;0.25;;;19.30;62.30;;;;;;6079915;23;1273471;-84
2023/10/04 19:05:37;;;;;;;0.30;0.30;;;19.30;61.40;;;;;;6182073;23;20155;-87
2023/10/04 19:08:03;;;;;;;0.30;0.30;;;19.30;61.40;;;;;;6132372;23;20166;-87
2023/10/04 19:10:29;;;;;;;0.30;0.30;;;19.30;61.20;;;;;;6181219;23;20132;-85
2023/10/04 19:12:55;;;;;;;0.32;0.32;;;19.20;61.20;;;;;;6156459;23;20204;-86
2023/10/04 19:15:26;;;;;;;0.60;0.30;;;19.30;61.20;;;;;;6180515;23;20559;-87
2023/10/04 19:17:52;;;;;;;0.35;0.32;;;19.30;61.20;;;;;;6156209;23;20453;-86
2023/10/04 19:20:20;;;;;;;0.50;0.30;;;19.30;61.10;;;;;;6155940;23;20159;-87
2023/10/04 19:22:46;;;;;;;0.50;0.40;;;19.30;61.10;;;;;;6180228;23;20270;-85
2023/10/04 19:25:15;;;;;;;0.38;0.38;;;19.40;61.20;;;;;;6155397;23;20151;-90
2023/10/04 19:27:42;;;;;;;0.30;0.30;;;19.30;61.10;;;;;;6132322;23;20151;-87
2023/10/04 19:30:09;;;;;;;0.70;0.40;;;19.30;61.10;;;;;;6180490;23;20134;-85
2023/10/04 19:32:37;;;;;;;0.68;0.40;;;19.30;61.00;;;;;;6181156;23;20131;-87
2023/10/04 19:35:06;;;;;;;0.35;0.30;;;19.30;61.00;;;;;;6132064;23;20234;-87
2023/10/04 19:37:33;;;;;;;0.40;0.35;;;19.30;61.00;;;;;;6156471;22;20170;-89
2023/10/04 19:40:02;;;;;;;0.55;0.30;;;19.20;60.90;;;;;;6156890;23;20143;-85
2023/10/04 19:42:30;;;;;;;0.25;0.25;;;19.30;60.90;;;;;;6132856;23;20239;-87
2023/10/04 19:44:59;;;;;;;0.63;0.30;;;19.30;61.00;;;;;;6156631;23;20493;-87
2023/10/04 19:47:27;;;;;;;0.85;0.50;;;19.20;60.90;;;;;;6156791;23;20139;-86
2023/10/04 19:49:53;;;;;;;0.30;0.30;;;19.30;61.00;;;;;;6130322;23;20151;-87
2023/10/04 19:52:19;;;;;;;0.50;0.40;;;19.30;61.00;;;;;;6155688;23;20136;-88
2023/10/04 19:54:45;;;;;;;1.42;0.50;;;19.30;61.00;;;;;;6156279;23;20137;-87
2023/10/04 19:57:12;;;;;;;0.40;0.35;;;19.30;61.00;;;;;;6181196;23;20167;-87
2023/10/04 19:59:38;;;;;;;0.45;0.30;;;19.30;61.00;;;;;;6156271;23;20574;-88
2023/10/04 20:02:08;;;;;;;1.10;0.30;;;19.30;61.00;;;;;;6131677;23;20178;-89
2023/10/04 20:04:36;;;;;;;0.30;0.30;;;19.30;61.10;;;;;;6130912;23;20229;-86
2023/10/04 20:07:04;;;;;;;0.40;0.32;;;19.30;60.90;;;;;;6181545;23;20127;-87
2023/10/04 20:09:31;;;;;;;0.68;0.50;;;19.30;61.40;;;;;;6132735;23;20622;-89
2023/10/04 20:12:00;;;;;;;0.80;0.50;;;19.20;61.90;;;;;;6132108;23;20192;-88
2023/10/04 20:14:31;;;;;;;0.85;0.50;;;19.30;62.00;;;;;;6131136;23;20230;-88
2023/10/04 20:17:02;;;;;;;0.30;0.30;;;19.10;62.00;;;;;;6209177;23;20475;-86
2023/10/04 20:19:33;;;;;;;1.33;0.40;;;19.30;62.10;;;;;;6132306;23;20486;-89
2023/10/04 20:22:03;;;;;;;1.42;0.40;;;19.20;62.10;;;;;;6082881;23;20187;-86
2023/10/04 20:24:32;;;;;;;1.35;0.50;;;19.20;62.10;;;;;;6259673;22;20254;-86
2023/10/04 20:27:03;;;;;;;0.50;0.50;;;19.20;62.10;;;;;;6132157;23;20146;-89
2023/10/04 20:29:29;;;;;;;0.70;0.50;;;19.20;62.10;;;;;;6209143;23;20926;-88
2023/10/04 20:31:59;;;;;;;0.50;0.40;;;19.20;62.20;;;;;;6156392;23;20139;-88
2023/10/04 20:34:28;;;;;;;0.60;0.40;;;19.20;62.20;;;;;;6131232;23;20151;-89
2023/10/04 20:36:54;;;;;;;0.47;0.47;;;19.20;62.40;;;;;;6132181;23;20147;-86
2023/10/04 20:39:24;;;;;;;0.47;0.35;;;19.10;62.30;;;;;;6156667;23;20432;-88
2023/10/04 20:41:50;;;;;;;1.70;0.50;;;19.20;62.50;;;;;;6133105;23;20179;-86
2023/10/04 20:44:16;;;;;;;0.60;0.40;;;19.20;62.50;;;;;;6156857;22;20139;-87